sensor_id;sensor_type;location;lat;lon;timestamp;P1;durP1;ratioP1;P2;durP2;ratioP2
19127;SDS011;9696;53.686;10.094;2023-03-21T00:00:53;13.67;;;8.93;;
19127;SDS011;9696;53.686;10.094;2023-03-21T00:03:24;12.73;;;8.40;;
19127;SDS011;9696;53.686;10.094;2023-03-21T00:05:54;14.07;;;9.07;;
19127;SDS011;9696;53.686;10.094;2023-03-21T00:08:24;11.87;;;8.13;;
19127;SDS011;9696;53.686;10.094;2023-03-21T00:10:54;12.47;;;8.43;;
19127;SDS011;9696;53.686;10.094;2023-03-21T00:13:26;14.10;;;8.97;;
19127;SDS011;9696;53.686;10.094;2023-03-21T00:16:02;14.83;;;9.57;;
19127;SDS011;9696;53.686;10.094;2023-03-21T00:18:44;14.93;;;8.13;;
19127;SDS011;9696;53.686;10.094;2023-03-21T00:21:15;13.87;;;9.03;;
19127;SDS011;9696;53.686;10.094;2023-03-21T00:24:05;18.73;;;9.13;;
19127;SDS011;9696;53.686;10.094;2023-03-21T00:26:34;12.33;;;8.63;;
19127;SDS011;9696;53.686;10.094;2023-03-21T00:29:05;14.10;;;9.03;;
19127;SDS011;9696;53.686;10.094;2023-03-21T00:31:34;14.27;;;9.10;;
19127;SDS011;9696;53.686;10.094;2023-03-21T00:34:04;14.10;;;8.77;;
19127;SDS011;9696;53.686;10.094;2023-03-21T00:36:33;14.63;;;9.13;;
19127;SDS011;9696;53.686;10.094;2023-03-21T00:39:05;14.43;;;9.77;;
19127;SDS011;9696;53.686;10.094;2023-03-21T00:41:35;16.53;;;10.33;;
19127;SDS011;9696;53.686;10.094;2023-03-21T00:44:10;15.40;;;9.80;;
19127;SDS011;9696;53.686;10.094;2023-03-21T00:46:42;18.10;;;10.20;;
19127;SDS011;9696;53.686;10.094;2023-03-21T00:49:33;13.57;;;8.97;;
19127;SDS011;9696;53.686;10.094;2023-03-21T00:52:04;14.10;;;8.93;;
19127;SDS011;9696;53.686;10.094;2023-03-21T00:54:50;15.37;;;8.67;;
19127;SDS011;9696;53.686;10.094;2023-03-21T00:57:19;15.70;;;10.30;;
19127;SDS011;9696;53.686;10.094;2023-03-21T01:00:07;16.23;;;9.47;;
19127;SDS011;9696;53.686;10.094;2023-03-21T01:02:37;14.47;;;9.47;;
19127;SDS011;9696;53.686;10.094;2023-03-21T01:05:31;20.13;;;10.87;;
19127;SDS011;9696;53.686;10.094;2023-03-21T01:08:24;16.53;;;10.40;;
19127;SDS011;9696;53.686;10.094;2023-03-21T01:11:10;18.03;;;10.33;;
19127;SDS011;9696;53.686;10.094;2023-03-21T01:13:41;17.70;;;10.23;;
19127;SDS011;9696;53.686;10.094;2023-03-21T01:16:25;18.43;;;11.17;;
19127;SDS011;9696;53.686;10.094;2023-03-21T01:18:54;16.90;;;10.40;;
19127;SDS011;9696;53.686;10.094;2023-03-21T01:21:24;19.27;;;11.30;;
19127;SDS011;9696;53.686;10.094;2023-03-21T01:23:53;16.57;;;9.83;;
19127;SDS011;9696;53.686;10.094;2023-03-21T01:26:23;18.10;;;10.67;;
19127;SDS011;9696;53.686;10.094;2023-03-21T01:28:52;17.07;;;11.10;;
19127;SDS011;9696;53.686;10.094;2023-03-21T01:31:21;19.33;;;11.33;;
19127;SDS011;9696;53.686;10.094;2023-03-21T01:33:51;19.07;;;11.10;;
19127;SDS011;9696;53.686;10.094;2023-03-21T01:36:21;19.93;;;11.67;;
19127;SDS011;9696;53.686;10.094;2023-03-21T01:38:57;21.90;;;11.93;;
19127;SDS011;9696;53.686;10.094;2023-03-21T01:41:26;20.93;;;11.87;;
19127;SDS011;9696;53.686;10.094;2023-03-21T01:44:24;18.77;;;11.17;;
19127;SDS011;9696;53.686;10.094;2023-03-21T01:46:54;19.17;;;10.93;;
19127;SDS011;9696;53.686;10.094;2023-03-21T01:49:47;18.80;;;11.00;;
19127;SDS011;9696;53.686;10.094;2023-03-21T01:52:21;21.53;;;12.53;;
19127;SDS011;9696;53.686;10.094;2023-03-21T01:55:15;19.27;;;11.00;;
19127;SDS011;9696;53.686;10.094;2023-03-21T01:58:08;21.07;;;11.50;;
19127;SDS011;9696;53.686;10.094;2023-03-21T02:01:02;22.63;;;12.03;;
19127;SDS011;9696;53.686;10.094;2023-03-21T02:03:45;23.53;;;13.20;;
19127;SDS011;9696;53.686;10.094;2023-03-21T02:06:29;22.73;;;11.80;;
19127;SDS011;9696;53.686;10.094;2023-03-21T02:09:16;21.97;;;12.00;;
19127;SDS011;9696;53.686;10.094;2023-03-21T02:11:49;25.40;;;13.43;;
19127;SDS011;9696;53.686;10.094;2023-03-21T02:14:19;28.13;;;13.37;;
19127;SDS011;9696;53.686;10.094;2023-03-21T02:17:02;22.40;;;12.63;;
19127;SDS011;9696;53.686;10.094;2023-03-21T02:19:53;20.97;;;12.00;;
19127;SDS011;9696;53.686;10.094;2023-03-21T02:22:55;23.83;;;12.97;;
19127;SDS011;9696;53.686;10.094;2023-03-21T02:26:03;24.27;;;13.27;;
19127;SDS011;9696;53.686;10.094;2023-03-21T02:29:08;26.60;;;13.53;;
19127;SDS011;9696;53.686;10.094;2023-03-21T02:31:54;23.53;;;12.07;;
19127;SDS011;9696;53.686;10.094;2023-03-21T02:34:59;23.43;;;12.60;;
19127;SDS011;9696;53.686;10.094;2023-03-21T02:37:42;25.03;;;13.73;;
19127;SDS011;9696;53.686;10.094;2023-03-21T02:40:27;29.87;;;14.30;;
19127;SDS011;9696;53.686;10.094;2023-03-21T02:43:02;22.73;;;12.57;;
19127;SDS011;9696;53.686;10.094;2023-03-21T02:45:49;25.13;;;14.00;;
19127;SDS011;9696;53.686;10.094;2023-03-21T02:48:22;24.63;;;14.80;;
19127;SDS011;9696;53.686;10.094;2023-03-21T02:51:16;24.07;;;12.83;;
19127;SDS011;9696;53.686;10.094;2023-03-21T02:53:51;27.40;;;14.93;;
19127;SDS011;9696;53.686;10.094;2023-03-21T02:56:46;26.87;;;13.73;;
19127;SDS011;9696;53.686;10.094;2023-03-21T02:59:17;24.20;;;14.03;;
19127;SDS011;9696;53.686;10.094;2023-03-21T03:01:50;25.80;;;14.10;;
19127;SDS011;9696;53.686;10.094;2023-03-21T03:04:20;27.33;;;14.30;;
19127;SDS011;9696;53.686;10.094;2023-03-21T03:06:58;26.73;;;13.80;;
19127;SDS011;9696;53.686;10.094;2023-03-21T03:09:53;25.70;;;14.07;;
19127;SDS011;9696;53.686;10.094;2023-03-21T03:12:37;25.23;;;12.73;;
19127;SDS011;9696;53.686;10.094;2023-03-21T03:15:14;23.87;;;13.67;;
19127;SDS011;9696;53.686;10.094;2023-03-21T03:17:57;24.57;;;13.93;;
19127;SDS011;9696;53.686;10.094;2023-03-21T03:20:36;26.70;;;14.03;;
19127;SDS011;9696;53.686;10.094;2023-03-21T03:23:18;23.53;;;12.97;;
19127;SDS011;9696;53.686;10.094;2023-03-21T03:25:59;26.97;;;14.73;;
19127;SDS011;9696;53.686;10.094;2023-03-21T03:28:34;28.47;;;15.03;;
19127;SDS011;9696;53.686;10.094;2023-03-21T03:31:11;26.93;;;14.60;;
19127;SDS011;9696;53.686;10.094;2023-03-21T03:33:52;26.90;;;14.23;;
19127;SDS011;9696;53.686;10.094;2023-03-21T03:36:26;26.00;;;14.30;;
19127;SDS011;9696;53.686;10.094;2023-03-21T03:39:07;25.13;;;14.13;;
19127;SDS011;9696;53.686;10.094;2023-03-21T03:41:45;27.77;;;14.67;;
19127;SDS011;9696;53.686;10.094;2023-03-21T03:44:40;29.37;;;15.00;;
19127;SDS011;9696;53.686;10.094;2023-03-21T03:47:09;26.47;;;15.13;;
19127;SDS011;9696;53.686;10.094;2023-03-21T03:50:00;28.27;;;15.83;;
19127;SDS011;9696;53.686;10.094;2023-03-21T03:52:36;27.43;;;16.40;;
19127;SDS011;9696;53.686;10.094;2023-03-21T03:55:22;29.30;;;15.33;;
19127;SDS011;9696;53.686;10.094;2023-03-21T03:57:59;31.10;;;15.90;;
19127;SDS011;9696;53.686;10.094;2023-03-21T04:00:32;35.40;;;17.23;;
19127;SDS011;9696;53.686;10.094;2023-03-21T04:03:02;31.43;;;16.37;;
19127;SDS011;9696;53.686;10.094;2023-03-21T04:05:33;31.00;;;16.53;;
19127;SDS011;9696;53.686;10.094;2023-03-21T04:08:02;29.70;;;16.03;;
19127;SDS011;9696;53.686;10.094;2023-03-21T04:10:38;30.03;;;15.30;;
19127;SDS011;9696;53.686;10.094;2023-03-21T04:13:10;31.40;;;16.77;;
19127;SDS011;9696;53.686;10.094;2023-03-21T04:15:59;29.63;;;16.07;;
19127;SDS011;9696;53.686;10.094;2023-03-21T04:18:29;25.73;;;15.20;;
19127;SDS011;9696;53.686;10.094;2023-03-21T04:20:58;33.33;;;16.83;;
19127;SDS011;9696;53.686;10.094;2023-03-21T04:23:29;31.60;;;14.97;;
19127;SDS011;9696;53.686;10.094;2023-03-21T04:25:59;30.30;;;16.27;;
19127;SDS011;9696;53.686;10.094;2023-03-21T04:28:35;27.73;;;15.60;;
19127;SDS011;9696;53.686;10.094;2023-03-21T04:31:25;27.27;;;14.87;;
19127;SDS011;9696;53.686;10.094;2023-03-21T04:34:04;27.47;;;14.97;;
19127;SDS011;9696;53.686;10.094;2023-03-21T04:36:37;32.50;;;17.30;;
19127;SDS011;9696;53.686;10.094;2023-03-21T04:39:08;29.13;;;16.30;;
19127;SDS011;9696;53.686;10.094;2023-03-21T04:41:43;33.17;;;16.87;;
19127;SDS011;9696;53.686;10.094;2023-03-21T04:44:14;33.83;;;16.13;;
19127;SDS011;9696;53.686;10.094;2023-03-21T04:46:45;32.20;;;16.63;;
19127;SDS011;9696;53.686;10.094;2023-03-21T04:49:14;30.83;;;16.67;;
19127;SDS011;9696;53.686;10.094;2023-03-21T04:51:44;32.53;;;18.03;;
19127;SDS011;9696;53.686;10.094;2023-03-21T04:54:17;35.87;;;19.10;;
19127;SDS011;9696;53.686;10.094;2023-03-21T04:56:47;37.57;;;19.27;;
19127;SDS011;9696;53.686;10.094;2023-03-21T04:59:19;39.37;;;19.97;;
19127;SDS011;9696;53.686;10.094;2023-03-21T05:01:49;39.57;;;19.73;;
19127;SDS011;9696;53.686;10.094;2023-03-21T05:04:18;40.47;;;19.53;;
19127;SDS011;9696;53.686;10.094;2023-03-21T05:06:47;39.13;;;19.20;;
19127;SDS011;9696;53.686;10.094;2023-03-21T05:09:16;44.53;;;21.07;;
19127;SDS011;9696;53.686;10.094;2023-03-21T05:11:45;41.10;;;21.63;;
19127;SDS011;9696;53.686;10.094;2023-03-21T05:14:17;42.67;;;20.80;;
19127;SDS011;9696;53.686;10.094;2023-03-21T05:16:50;39.83;;;20.57;;
19127;SDS011;9696;53.686;10.094;2023-03-21T05:19:22;44.17;;;20.90;;
19127;SDS011;9696;53.686;10.094;2023-03-21T05:22:03;36.33;;;19.30;;
19127;SDS011;9696;53.686;10.094;2023-03-21T05:24:34;42.13;;;20.57;;
19127;SDS011;9696;53.686;10.094;2023-03-21T05:27:09;42.23;;;21.53;;
19127;SDS011;9696;53.686;10.094;2023-03-21T05:29:46;38.57;;;18.70;;
19127;SDS011;9696;53.686;10.094;2023-03-21T05:32:15;42.63;;;21.03;;
19127;SDS011;9696;53.686;10.094;2023-03-21T05:34:44;42.97;;;19.90;;
19127;SDS011;9696;53.686;10.094;2023-03-21T05:37:13;38.17;;;20.13;;
19127;SDS011;9696;53.686;10.094;2023-03-21T05:39:46;40.93;;;20.73;;
19127;SDS011;9696;53.686;10.094;2023-03-21T05:42:22;41.33;;;22.13;;
19127;SDS011;9696;53.686;10.094;2023-03-21T05:44:53;42.57;;;21.17;;
19127;SDS011;9696;53.686;10.094;2023-03-21T05:47:27;42.17;;;19.40;;
19127;SDS011;9696;53.686;10.094;2023-03-21T05:49:59;39.83;;;19.67;;
19127;SDS011;9696;53.686;10.094;2023-03-21T05:52:29;39.60;;;20.47;;
19127;SDS011;9696;53.686;10.094;2023-03-21T05:54:59;43.10;;;23.33;;
19127;SDS011;9696;53.686;10.094;2023-03-21T05:57:30;41.93;;;21.37;;
19127;SDS011;9696;53.686;10.094;2023-03-21T06:00:09;39.33;;;20.53;;
19127;SDS011;9696;53.686;10.094;2023-03-21T06:02:42;44.80;;;21.57;;
19127;SDS011;9696;53.686;10.094;2023-03-21T06:05:44;42.97;;;21.77;;
19127;SDS011;9696;53.686;10.094;2023-03-21T06:08:19;41.00;;;21.47;;
19127;SDS011;9696;53.686;10.094;2023-03-21T06:10:49;41.53;;;21.00;;
19127;SDS011;9696;53.686;10.094;2023-03-21T06:13:18;38.60;;;19.17;;
19127;SDS011;9696;53.686;10.094;2023-03-21T06:15:49;44.23;;;23.37;;
19127;SDS011;9696;53.686;10.094;2023-03-21T06:18:22;49.03;;;21.70;;
19127;SDS011;9696;53.686;10.094;2023-03-21T06:21:02;44.57;;;22.37;;
19127;SDS011;9696;53.686;10.094;2023-03-21T06:23:31;40.57;;;21.53;;
19127;SDS011;9696;53.686;10.094;2023-03-21T06:26:00;44.40;;;22.57;;
19127;SDS011;9696;53.686;10.094;2023-03-21T06:28:30;38.97;;;20.43;;
19127;SDS011;9696;53.686;10.094;2023-03-21T06:31:00;44.93;;;21.70;;
19127;SDS011;9696;53.686;10.094;2023-03-21T06:33:32;48.73;;;23.40;;
19127;SDS011;9696;53.686;10.094;2023-03-21T06:36:01;43.17;;;23.43;;
19127;SDS011;9696;53.686;10.094;2023-03-21T06:38:30;40.80;;;21.60;;
19127;SDS011;9696;53.686;10.094;2023-03-21T06:41:04;43.30;;;22.60;;
19127;SDS011;9696;53.686;10.094;2023-03-21T06:43:40;46.17;;;22.77;;
19127;SDS011;9696;53.686;10.094;2023-03-21T06:46:10;44.13;;;22.37;;
19127;SDS011;9696;53.686;10.094;2023-03-21T06:48:40;43.30;;;21.57;;
19127;SDS011;9696;53.686;10.094;2023-03-21T06:51:11;44.10;;;21.67;;
19127;SDS011;9696;53.686;10.094;2023-03-21T06:53:53;44.93;;;22.73;;
19127;SDS011;9696;53.686;10.094;2023-03-21T06:56:39;49.33;;;23.43;;
19127;SDS011;9696;53.686;10.094;2023-03-21T06:59:11;48.43;;;26.00;;
19127;SDS011;9696;53.686;10.094;2023-03-21T07:01:54;42.77;;;21.70;;
19127;SDS011;9696;53.686;10.094;2023-03-21T07:04:24;41.80;;;21.60;;
19127;SDS011;9696;53.686;10.094;2023-03-21T07:06:55;43.20;;;22.60;;
19127;SDS011;9696;53.686;10.094;2023-03-21T07:09:26;44.83;;;23.93;;
19127;SDS011;9696;53.686;10.094;2023-03-21T07:12:01;45.10;;;23.83;;
19127;SDS011;9696;53.686;10.094;2023-03-21T07:14:48;44.37;;;23.53;;
19127;SDS011;9696;53.686;10.094;2023-03-21T07:17:19;44.63;;;23.97;;
19127;SDS011;9696;53.686;10.094;2023-03-21T07:19:48;39.10;;;20.63;;
19127;SDS011;9696;53.686;10.094;2023-03-21T07:22:18;53.37;;;23.97;;
19127;SDS011;9696;53.686;10.094;2023-03-21T07:24:47;44.87;;;23.37;;
19127;SDS011;9696;53.686;10.094;2023-03-21T07:27:32;63.57;;;27.30;;
19127;SDS011;9696;53.686;10.094;2023-03-21T07:30:01;53.23;;;24.37;;
19127;SDS011;9696;53.686;10.094;2023-03-21T07:32:33;53.43;;;24.83;;
19127;SDS011;9696;53.686;10.094;2023-03-21T07:35:04;59.60;;;25.80;;
19127;SDS011;9696;53.686;10.094;2023-03-21T07:37:34;48.50;;;23.83;;
19127;SDS011;9696;53.686;10.094;2023-03-21T07:40:05;56.70;;;26.40;;
19127;SDS011;9696;53.686;10.094;2023-03-21T07:42:38;63.67;;;27.90;;
19127;SDS011;9696;53.686;10.094;2023-03-21T07:45:10;52.47;;;24.37;;
19127;SDS011;9696;53.686;10.094;2023-03-21T07:47:45;58.13;;;26.20;;
19127;SDS011;9696;53.686;10.094;2023-03-21T07:50:15;62.17;;;28.10;;
19127;SDS011;9696;53.686;10.094;2023-03-21T07:52:44;67.77;;;28.10;;
19127;SDS011;9696;53.686;10.094;2023-03-21T07:55:14;52.60;;;24.73;;
19127;SDS011;9696;53.686;10.094;2023-03-21T07:57:44;48.30;;;23.00;;
19127;SDS011;9696;53.686;10.094;2023-03-21T08:00:17;61.37;;;25.70;;
19127;SDS011;9696;53.686;10.094;2023-03-21T08:02:51;56.03;;;26.90;;
19127;SDS011;9696;53.686;10.094;2023-03-21T08:05:25;59.17;;;25.70;;
19127;SDS011;9696;53.686;10.094;2023-03-21T08:07:55;53.60;;;26.13;;
19127;SDS011;9696;53.686;10.094;2023-03-21T08:10:25;58.90;;;27.53;;
19127;SDS011;9696;53.686;10.094;2023-03-21T08:12:54;55.37;;;27.17;;
19127;SDS011;9696;53.686;10.094;2023-03-21T08:15:24;52.70;;;22.80;;
19127;SDS011;9696;53.686;10.094;2023-03-21T08:17:55;62.70;;;26.73;;
19127;SDS011;9696;53.686;10.094;2023-03-21T08:20:26;56.87;;;25.40;;
19127;SDS011;9696;53.686;10.094;2023-03-21T08:22:55;58.53;;;27.90;;
19127;SDS011;9696;53.686;10.094;2023-03-21T08:25:25;62.20;;;27.07;;
19127;SDS011;9696;53.686;10.094;2023-03-21T08:27:54;59.60;;;27.37;;
19127;SDS011;9696;53.686;10.094;2023-03-21T08:30:23;57.47;;;27.97;;
19127;SDS011;9696;53.686;10.094;2023-03-21T08:32:57;61.87;;;27.57;;
19127;SDS011;9696;53.686;10.094;2023-03-21T08:35:28;59.73;;;29.33;;
19127;SDS011;9696;53.686;10.094;2023-03-21T08:37:58;51.00;;;24.50;;
19127;SDS011;9696;53.686;10.094;2023-03-21T08:40:29;61.73;;;27.93;;
19127;SDS011;9696;53.686;10.094;2023-03-21T08:42:58;54.77;;;25.17;;
19127;SDS011;9696;53.686;10.094;2023-03-21T08:45:27;50.70;;;25.23;;
19127;SDS011;9696;53.686;10.094;2023-03-21T08:47:58;46.77;;;23.27;;
19127;SDS011;9696;53.686;10.094;2023-03-21T08:50:27;50.37;;;24.63;;
19127;SDS011;9696;53.686;10.094;2023-03-21T08:52:57;41.83;;;22.27;;
19127;SDS011;9696;53.686;10.094;2023-03-21T08:55:26;44.80;;;23.13;;
19127;SDS011;9696;53.686;10.094;2023-03-21T08:57:56;51.80;;;25.87;;
19127;SDS011;9696;53.686;10.094;2023-03-21T09:00:25;47.07;;;20.57;;
19127;SDS011;9696;53.686;10.094;2023-03-21T09:02:54;38.57;;;21.07;;
19127;SDS011;9696;53.686;10.094;2023-03-21T09:05:25;43.40;;;21.00;;
19127;SDS011;9696;53.686;10.094;2023-03-21T09:07:54;43.00;;;22.00;;
19127;SDS011;9696;53.686;10.094;2023-03-21T09:10:24;37.13;;;20.30;;
19127;SDS011;9696;53.686;10.094;2023-03-21T09:12:53;37.67;;;20.30;;
19127;SDS011;9696;53.686;10.094;2023-03-21T09:15:24;32.70;;;18.87;;
19127;SDS011;9696;53.686;10.094;2023-03-21T09:17:56;34.27;;;18.83;;
19127;SDS011;9696;53.686;10.094;2023-03-21T09:20:38;34.77;;;19.23;;
19127;SDS011;9696;53.686;10.094;2023-03-21T09:23:09;38.97;;;21.40;;
19127;SDS011;9696;53.686;10.094;2023-03-21T09:25:39;36.07;;;20.60;;
19127;SDS011;9696;53.686;10.094;2023-03-21T09:28:08;31.80;;;18.70;;
19127;SDS011;9696;53.686;10.094;2023-03-21T09:30:38;32.80;;;18.30;;
19127;SDS011;9696;53.686;10.094;2023-03-21T09:33:09;35.20;;;18.17;;
19127;SDS011;9696;53.686;10.094;2023-03-21T09:35:39;39.00;;;20.00;;
19127;SDS011;9696;53.686;10.094;2023-03-21T09:38:08;33.93;;;19.40;;
19127;SDS011;9696;53.686;10.094;2023-03-21T09:40:50;39.93;;;20.87;;
19127;SDS011;9696;53.686;10.094;2023-03-21T09:43:30;33.30;;;17.70;;
19127;SDS011;9696;53.686;10.094;2023-03-21T09:46:11;41.40;;;21.33;;
19127;SDS011;9696;53.686;10.094;2023-03-21T09:48:49;36.33;;;18.90;;
19127;SDS011;9696;53.686;10.094;2023-03-21T09:51:25;48.90;;;22.37;;
19127;SDS011;9696;53.686;10.094;2023-03-21T09:53:58;35.40;;;18.33;;
19127;SDS011;9696;53.686;10.094;2023-03-21T09:56:33;43.73;;;21.23;;
19127;SDS011;9696;53.686;10.094;2023-03-21T09:59:04;36.33;;;18.67;;
19127;SDS011;9696;53.686;10.094;2023-03-21T10:01:37;35.80;;;19.60;;
19127;SDS011;9696;53.686;10.094;2023-03-21T10:04:13;40.17;;;20.07;;
19127;SDS011;9696;53.686;10.094;2023-03-21T10:06:46;38.27;;;20.13;;
19127;SDS011;9696;53.686;10.094;2023-03-21T10:09:23;37.70;;;20.03;;
19127;SDS011;9696;53.686;10.094;2023-03-21T10:11:55;43.23;;;20.70;;
19127;SDS011;9696;53.686;10.094;2023-03-21T10:14:29;36.57;;;19.80;;
19127;SDS011;9696;53.686;10.094;2023-03-21T10:17:03;34.33;;;17.73;;
19127;SDS011;9696;53.686;10.094;2023-03-21T10:19:50;35.53;;;18.03;;
19127;SDS011;9696;53.686;10.094;2023-03-21T10:22:37;35.87;;;18.07;;
19127;SDS011;9696;53.686;10.094;2023-03-21T10:25:07;40.50;;;20.63;;
19127;SDS011;9696;53.686;10.094;2023-03-21T10:27:41;35.67;;;17.00;;
19127;SDS011;9696;53.686;10.094;2023-03-21T10:30:14;42.10;;;15.97;;
19127;SDS011;9696;53.686;10.094;2023-03-21T10:32:53;31.93;;;17.50;;
19127;SDS011;9696;53.686;10.094;2023-03-21T10:35:27;31.27;;;16.33;;
19127;SDS011;9696;53.686;10.094;2023-03-21T10:37:58;33.63;;;16.57;;
19127;SDS011;9696;53.686;10.094;2023-03-21T10:40:28;33.37;;;16.90;;
19127;SDS011;9696;53.686;10.094;2023-03-21T10:43:14;28.30;;;15.77;;
19127;SDS011;9696;53.686;10.094;2023-03-21T10:45:46;31.43;;;15.43;;
19127;SDS011;9696;53.686;10.094;2023-03-21T10:48:15;29.03;;;16.37;;
19127;SDS011;9696;53.686;10.094;2023-03-21T10:50:46;26.17;;;13.73;;
19127;SDS011;9696;53.686;10.094;2023-03-21T10:53:19;25.87;;;14.90;;
19127;SDS011;9696;53.686;10.094;2023-03-21T10:55:50;29.77;;;15.57;;
19127;SDS011;9696;53.686;10.094;2023-03-21T10:58:24;23.00;;;13.33;;
19127;SDS011;9696;53.686;10.094;2023-03-21T11:00:56;25.10;;;12.93;;
19127;SDS011;9696;53.686;10.094;2023-03-21T11:03:29;22.20;;;13.23;;
19127;SDS011;9696;53.686;10.094;2023-03-21T11:06:03;26.67;;;13.60;;
19127;SDS011;9696;53.686;10.094;2023-03-21T11:08:38;27.20;;;14.03;;
19127;SDS011;9696;53.686;10.094;2023-03-21T11:11:11;26.23;;;13.73;;
19127;SDS011;9696;53.686;10.094;2023-03-21T11:13:54;24.97;;;13.43;;
19127;SDS011;9696;53.686;10.094;2023-03-21T11:16:29;22.00;;;13.77;;
19127;SDS011;9696;53.686;10.094;2023-03-21T11:19:12;23.73;;;13.37;;
19127;SDS011;9696;53.686;10.094;2023-03-21T11:21:44;24.43;;;13.63;;
19127;SDS011;9696;53.686;10.094;2023-03-21T11:24:15;27.37;;;12.47;;
19127;SDS011;9696;53.686;10.094;2023-03-21T11:26:46;25.43;;;13.93;;
19127;SDS011;9696;53.686;10.094;2023-03-21T11:29:23;23.30;;;13.83;;
19127;SDS011;9696;53.686;10.094;2023-03-21T11:31:56;21.07;;;12.53;;
19127;SDS011;9696;53.686;10.094;2023-03-21T11:34:30;24.97;;;13.07;;
19127;SDS011;9696;53.686;10.094;2023-03-21T11:37:15;27.07;;;13.40;;
19127;SDS011;9696;53.686;10.094;2023-03-21T11:39:46;22.47;;;12.37;;
19127;SDS011;9696;53.686;10.094;2023-03-21T11:42:24;20.40;;;11.47;;
19127;SDS011;9696;53.686;10.094;2023-03-21T11:44:56;22.77;;;12.27;;
19127;SDS011;9696;53.686;10.094;2023-03-21T11:47:29;21.10;;;11.90;;
19127;SDS011;9696;53.686;10.094;2023-03-21T11:49:58;21.53;;;12.70;;
19127;SDS011;9696;53.686;10.094;2023-03-21T11:52:35;21.07;;;12.17;;
19127;SDS011;9696;53.686;10.094;2023-03-21T11:55:16;21.37;;;11.77;;
19127;SDS011;9696;53.686;10.094;2023-03-21T12:01:02;21.23;;;11.70;;
19127;SDS011;9696;53.686;10.094;2023-03-21T12:03:46;22.03;;;12.37;;
19127;SDS011;9696;53.686;10.094;2023-03-21T12:06:25;20.10;;;11.53;;
19127;SDS011;9696;53.686;10.094;2023-03-21T12:09:10;22.27;;;11.53;;
19127;SDS011;9696;53.686;10.094;2023-03-21T12:11:58;20.33;;;11.17;;
19127;SDS011;9696;53.686;10.094;2023-03-21T12:14:34;18.93;;;11.17;;
19127;SDS011;9696;53.686;10.094;2023-03-21T12:17:13;21.57;;;11.40;;
19127;SDS011;9696;53.686;10.094;2023-03-21T12:19:54;24.00;;;13.07;;
19127;SDS011;9696;53.686;10.094;2023-03-21T12:22:44;21.80;;;11.87;;
19127;SDS011;9696;53.686;10.094;2023-03-21T12:25:25;24.07;;;13.87;;
19127;SDS011;9696;53.686;10.094;2023-03-21T12:28:00;29.00;;;12.97;;
19127;SDS011;9696;53.686;10.094;2023-03-21T12:30:44;21.50;;;12.63;;
19127;SDS011;9696;53.686;10.094;2023-03-21T12:33:29;26.53;;;13.47;;
19127;SDS011;9696;53.686;10.094;2023-03-21T12:36:20;22.53;;;12.07;;
19127;SDS011;9696;53.686;10.094;2023-03-21T12:39:07;27.23;;;14.30;;
19127;SDS011;9696;53.686;10.094;2023-03-21T12:41:50;26.43;;;13.37;;
19127;SDS011;9696;53.686;10.094;2023-03-21T12:44:30;23.33;;;12.97;;
19127;SDS011;9696;53.686;10.094;2023-03-21T12:47:03;26.77;;;13.20;;
19127;SDS011;9696;53.686;10.094;2023-03-21T12:49:38;23.67;;;11.67;;
19127;SDS011;9696;53.686;10.094;2023-03-21T12:52:14;23.37;;;12.53;;
19127;SDS011;9696;53.686;10.094;2023-03-21T12:54:49;23.43;;;12.17;;
19127;SDS011;9696;53.686;10.094;2023-03-21T12:57:26;18.80;;;9.47;;
19127;SDS011;9696;53.686;10.094;2023-03-21T13:00:00;20.47;;;11.33;;
19127;SDS011;9696;53.686;10.094;2023-03-21T13:02:37;26.57;;;12.03;;
19127;SDS011;9696;53.686;10.094;2023-03-21T13:05:14;25.20;;;11.77;;
19127;SDS011;9696;53.686;10.094;2023-03-21T13:07:48;22.87;;;12.40;;
19127;SDS011;9696;53.686;10.094;2023-03-21T13:10:20;18.77;;;9.57;;
19127;SDS011;9696;53.686;10.094;2023-03-21T13:12:54;15.53;;;8.80;;
19127;SDS011;9696;53.686;10.094;2023-03-21T13:15:38;16.27;;;9.53;;
19127;SDS011;9696;53.686;10.094;2023-03-21T13:18:30;14.50;;;8.63;;
19127;SDS011;9696;53.686;10.094;2023-03-21T13:21:09;15.03;;;8.70;;
19127;SDS011;9696;53.686;10.094;2023-03-21T13:23:54;14.30;;;8.73;;
19127;SDS011;9696;53.686;10.094;2023-03-21T13:26:31;13.40;;;7.83;;
19127;SDS011;9696;53.686;10.094;2023-03-21T13:29:12;18.73;;;9.17;;
19127;SDS011;9696;53.686;10.094;2023-03-21T13:31:50;13.07;;;7.07;;
19127;SDS011;9696;53.686;10.094;2023-03-21T13:34:23;14.03;;;7.63;;
19127;SDS011;9696;53.686;10.094;2023-03-21T13:36:54;11.50;;;7.37;;
19127;SDS011;9696;53.686;10.094;2023-03-21T13:39:25;12.93;;;8.13;;
19127;SDS011;9696;53.686;10.094;2023-03-21T13:42:00;14.33;;;8.77;;
19127;SDS011;9696;53.686;10.094;2023-03-21T13:44:38;13.23;;;8.57;;
19127;SDS011;9696;53.686;10.094;2023-03-21T13:53:08;14.63;;;8.43;;
19127;SDS011;9696;53.686;10.094;2023-03-21T13:56:01;14.60;;;8.00;;
19127;SDS011;9696;53.686;10.094;2023-03-21T13:58:54;16.70;;;7.27;;
19127;SDS011;9696;53.686;10.094;2023-03-21T14:01:32;11.77;;;7.37;;
19127;SDS011;9696;53.686;10.094;2023-03-21T14:04:05;13.77;;;8.07;;
19127;SDS011;9696;53.686;10.094;2023-03-21T14:06:43;11.63;;;6.87;;
19127;SDS011;9696;53.686;10.094;2023-03-21T14:09:19;13.73;;;6.87;;
19127;SDS011;9696;53.686;10.094;2023-03-21T14:11:52;12.33;;;7.63;;
19127;SDS011;9696;53.686;10.094;2023-03-21T14:14:35;14.13;;;7.57;;
19127;SDS011;9696;53.686;10.094;2023-03-21T14:17:19;14.07;;;7.80;;
19127;SDS011;9696;53.686;10.094;2023-03-21T14:19:51;18.90;;;7.67;;
19127;SDS011;9696;53.686;10.094;2023-03-21T14:22:21;13.10;;;8.07;;
19127;SDS011;9696;53.686;10.094;2023-03-21T14:24:55;11.67;;;7.23;;
19127;SDS011;9696;53.686;10.094;2023-03-21T14:27:24;15.30;;;7.97;;
19127;SDS011;9696;53.686;10.094;2023-03-21T14:29:57;11.90;;;7.50;;
19127;SDS011;9696;53.686;10.094;2023-03-21T14:32:29;13.67;;;6.80;;
19127;SDS011;9696;53.686;10.094;2023-03-21T14:34:59;12.37;;;7.13;;
19127;SDS011;9696;53.686;10.094;2023-03-21T14:37:30;12.70;;;6.60;;
19127;SDS011;9696;53.686;10.094;2023-03-21T14:40:02;11.50;;;7.47;;
19127;SDS011;9696;53.686;10.094;2023-03-21T14:42:45;13.47;;;7.33;;
19127;SDS011;9696;53.686;10.094;2023-03-21T14:45:15;13.10;;;6.97;;
19127;SDS011;9696;53.686;10.094;2023-03-21T14:47:55;10.80;;;6.90;;
19127;SDS011;9696;53.686;10.094;2023-03-21T14:50:28;10.00;;;6.77;;
19127;SDS011;9696;53.686;10.094;2023-03-21T14:53:03;10.53;;;7.03;;
19127;SDS011;9696;53.686;10.094;2023-03-21T14:55:39;11.77;;;6.63;;
19127;SDS011;9696;53.686;10.094;2023-03-21T14:58:11;15.03;;;7.50;;
19127;SDS011;9696;53.686;10.094;2023-03-21T15:00:42;14.27;;;7.87;;
19127;SDS011;9696;53.686;10.094;2023-03-21T15:03:16;10.77;;;6.67;;
19127;SDS011;9696;53.686;10.094;2023-03-21T15:05:47;12.43;;;7.03;;
19127;SDS011;9696;53.686;10.094;2023-03-21T15:08:17;12.77;;;7.87;;
19127;SDS011;9696;53.686;10.094;2023-03-21T15:10:54;10.90;;;7.10;;
19127;SDS011;9696;53.686;10.094;2023-03-21T15:13:33;12.03;;;6.67;;
19127;SDS011;9696;53.686;10.094;2023-03-21T15:16:07;13.10;;;7.40;;
19127;SDS011;9696;53.686;10.094;2023-03-21T15:18:39;12.17;;;6.90;;
19127;SDS011;9696;53.686;10.094;2023-03-21T15:21:11;14.77;;;7.67;;